CheckWX is a tool to help pilots better visualize weather data.  It is not intended as a substitute for an official pre-flight weather briefing.

06:50:57 UTC

KBAM METAR
Battle Mountain Airport
Battle Mountain, Nevada, USA
Current

16 mins ago

KBAM 180635Z AUTO 00000KT 10SM CLR 01/M08 A3027 RMK AO1
Observed
Nov-18 @ 06:35 UTC
Visibility
10 SM
Flight Rules
VFR
Cloud Levels
  • Clear skies
Temperature
C / 34°F
Dewpoint
-8°C / 18°F
Humidity
51%
Altimeter
30.27" Hg
Pressure
1025.02 hPa
Previous

36 mins ago

KBAM 180615Z AUTO 21003KT 10SM CLR 02/M07 A3027 RMK AO1
Observed
Nov-18 @ 06:15 UTC
Wind
  • 210° at 3 KTS
Visibility
10 SM
Flight Rules
VFR
Cloud Levels
  • Clear skies
Temperature
C / 36°F
Dewpoint
-7°C / 19°F
Humidity
52%
Altimeter
30.27" Hg
Pressure
1025.02 hPa
Previous

56 mins ago

KBAM 180555Z AUTO 22003KT 10SM CLR 01/M08 A3027 RMK AO1
Observed
Nov-18 @ 05:55 UTC
Wind
  • 220° at 3 KTS
Visibility
10 SM
Flight Rules
VFR
Cloud Levels
  • Clear skies
Temperature
C / 34°F
Dewpoint
-8°C / 18°F
Humidity
51%
Altimeter
30.27" Hg
Pressure
1025.02 hPa